x

Buoy A01 - Mass. Bay/stellwagen (44029) Wave Buoy

4:04pm - Thu 17th Apr 2014 All times are EDT. -4 hours from GMT.

  • Sig Wave height 5.6ft
  • Peak Period 11s
  • Wind
    13mph, 18mph gusts
  • Sea Temp 41°f
  • 空気 Temp 36°f
  • Sea Pressure 1040.8mb
  • Buoy A01 - Mass. Bay/stellwagen
  • Buoy A01 - Mass. Bay/stellwagen

More Historic Weather Station data

Upgrade to MSW Pro to gain access to the past 30 days of data for over 8000 Wavebouys and Weather Stations around the globe.

Join Pro

Comparision Forecast

View Surf forecast
   
Thu 04/17 4:04pm 5.5ft 11s 13 18 mph 1040.8mb 41f 36f
3:04pm 4.5ft 6s 16 18 mph 1040.9mb 41f 36f
2:04pm 6ft 6s 16 20 mph 1041.3mb 41f 36f
1:04pm 6ft 6s 16 20 mph 1041.5mb 40f 35f
12:04pm 5.5ft 6s 18 20 mph 1041.9mb 40f 35f
11:04am 5ft 6s 18 22 mph 1042.2mb 40f 35f
10:04am 6ft 6s 22 25 mph 1042mb 40f 34f
9:04am 6ft 6s 22 27 mph 1041.6mb 40f 34f
8:04am 5ft 5s 22 27 mph 1041.2mb 40f 34f
7:04am 5ft 5s 22 27 mph 1040.4mb 40f 33f
6:04am 6ft 11s 22 27 mph 1039.6mb 40f 33f
5:04am 5.5ft 11s 22 27 mph 1038.9mb 40f 34f
4:04am 6ft 5s 20 25 mph 1038.4mb 40f 34f
3:04am 5.5ft 11s 20 25 mph 1037.2mb 40f 34f
2:04am 5.5ft 11s 20 22 mph 1036.6mb 40f 35f
1:04am 4ft 5s 18 22 mph 1035.8mb 40f 36f
12:04am 5ft 11s 20 25 mph 1035.1mb 40f 36f
Wed 04/16 11:04pm 2.5ft 4s 20 25 mph 1034.5mb 40f 37f
10:04pm 4.5ft 11s 18 20 mph 1034mb 40f 37f
9:04pm 4.5ft 11s 18 22 mph 1033.1mb 40f 38f
8:04pm  -   -  16 20 mph 1031.8mb 40f 39f
7:04pm 2.5ft 5s 18 22 mph 1030.3mb 40f 39f
6:04pm 2.5ft 5s 18 22 mph 1029.4mb 40f 40f
5:04pm  -   -  18 25 mph 1028.3mb 40f 40f
4:04pm 5ft 11s 16 20 mph 1027.5mb 40f 38f
3:04pm 4.5ft 11s 13 18 mph 1026.8mb 40f 37f
2:04pm 5ft 11s 16 20 mph 1026.4mb 40f 36f
1:04pm 5ft 11s 18 22 mph 1025.1mb 39f 35f
12:04pm 4.5ft 11s 22 27 mph 1023.9mb 39f 34f
11:04am 3.5ft 4s 25 36 mph 1022.9mb 39f 32f
10:04am 4ft 4s 27 36 mph 1021.5mb 39f 32f
9:04am 3ft 4s 29 36 mph 1020.3mb 39f 31f
8:04am 4ft 4s 31 38 mph 1018.3mb 39f 31f
7:04am 4.5ft 4s 29 36 mph 1015.4mb 39f 32f
6:04am 3.5ft 4s 29 36 mph 1013.4mb 39f 34f
5:04am 2.5ft 3s 27 31 mph 1011mb 39f 33f
4:04am 3.5ft 8s 20 22 mph 1009.6mb 39f 37f
3:04am 3.5ft 8s 22 27 mph 1007.2mb 40f 38f
2:04am  -   -  22 27 mph 1006.6mb 40f 39f
1:04am 3.5ft 5s 27 31 mph 1005.4mb 41f 42f
12:04am 5ft 5s 20 25 mph 1003.5mb 41f 44f
Tue 04/15 11:04pm 5ft 6s 16 20 mph 1001.6mb 41f 47f
10:04pm 6ft 6s 18 22 mph 1000.7mb 41f 49f
9:04pm 6ft 6s 18 20 mph 1000.7mb 41f 47f
8:04pm 6ft 6s 18 20 mph 1000.9mb 41f 48f
7:04pm 6ft 5s 22 27 mph 1000.8mb 41f 50f
6:04pm 6ft 6s 27 31 mph 1001.4mb 42f 51f
5:04pm 6ft 6s 22 27 mph 1002.1mb 42f 49f
4:04pm 6.5ft 6s 22 27 mph 1002.4mb 42f 50f
3:04pm 5ft 5s 22 25 mph 1002.9mb 42f 50f
2:04pm 5ft 5s 22 25 mph 1004.1mb 42f 51f
1:04pm 3.5ft 5s 25 27 mph 1004.5mb 42f 52f
12:04pm 4.5ft 5s 16 18 mph 1006mb 42f 48f
7:04am 4ft 5s 22 25 mph 1010mb 42f 49f
6:04am 4ft 5s 13 16 mph 1010.2mb 42f 48f
5:04am 4ft 5s 18 20 mph 1010.3mb 42f 50f
4:04am 4ft 5s 11 13 mph 1010.4mb 42f 47f
3:04am 3.5ft 5s 11
mph
1010.9mb 43f 47f
2:04am 4ft 5s 9
mph
1011.1mb 42f 47f
1:04am 3.5ft 5s 11 13 mph 1011.6mb 42f 48f
12:04am 4ft 5s 13 16 mph 1011.5mb 42f 47f
Mon 04/14 11:04pm 4ft 5s 11 13 mph 1011.7mb 42f 47f
10:04pm 4ft 5s 13 16 mph 1012mb 42f 48f
9:04pm 4.5ft 5s 18 20 mph 1012mb 42f 49f
8:04pm 5ft 5s 18 20 mph 1012mb 42f 51f
7:04pm 4.5ft 5s 20 22 mph 1011.4mb 42f 52f
6:04pm 4ft 5s 16 20 mph 1011.5mb 42f 51f
5:04pm 4.5ft 5s 20 22 mph 1011.8mb 42f 53f
4:04pm 4.5ft 5s 22 27 mph 1011.7mb 42f 54f
3:04pm 4ft 5s 22 27 mph 1011.9mb 42f 55f
2:04pm 3.5ft 5s 16 20 mph 1012.1mb 42f 52f
1:04pm 3.5ft 5s 16 18 mph 1012.4mb 42f 51f
12:04pm 3.5ft 5s 16 20 mph 1013.1mb 42f 51f
11:04am 3ft 5s 16 18 mph 1013.6mb 42f 49f
10:04am 3.5ft 5s 18 20 mph 1013.7mb 42f 50f
9:04am 3.5ft 5s 20 22 mph 1013.7mb 42f 50f
8:04am 3.5ft 5s 18 20 mph 1014.2mb 42f 50f
7:04am 3ft 5s 11
mph
1014.4mb 42f 46f
6:04am 2.5ft 5s 13
mph
1014.3mb 42f 47f
5:04am 3ft 5s 11
mph
1014.5mb 42f 47f
4:04am 2.5ft 5s 13 16 mph 1014.5mb 42f 47f
3:04am 2.5ft 5s 11 13 mph 1014.8mb 41f 47f
2:04am 2.5ft 5s 9 11 mph 1015mb 41f 45f
1:04am 2.5ft 5s 11
mph
1015.3mb 41f 46f
12:04am 2.5ft 5s 11 13 mph 1015.6mb 41f 44f
Sun 04/13 11:04pm 2.5ft 5s 2 4 mph 1016.2mb 41f 44f
10:04pm 2.5ft 5s 4 9 mph 1016.5mb 42f 44f